Time;durP1;ratioP1;P1;durP2;ratioP2;P2;SDS_P1;SDS_P2;PMS_P1;PMS_P2;Temp;Humidity;BMP_temperature;BMP_pressure;BME280_temperature;BME280_humidity;BME280_pressure;Samples;Min_cycle;Max_cycle;Signal;HPM_P1;HPM_P2
2023/09/27 00:01:51;;;;;;;;;;;16.20;99.90;;;;;;2619580;47;20676;-77
2023/09/27 00:04:21;;;;;;;;;;;16.30;99.90;;;;;;2617891;47;19950;-76
2023/09/27 00:06:52;;;;;;;;;;;16.20;99.90;;;;;;2618106;54;19995;-75
2023/09/27 00:09:21;;;;;;;;;;;16.20;99.90;;;;;;2620928;54;19966;-78
2023/09/27 00:11:51;;;;;;;;;;;16.40;99.90;;;;;;2630486;54;19951;-79
2023/09/27 00:14:22;;;;;;;;;;;16.20;99.90;;;;;;2630214;47;19931;-78
2023/09/27 00:16:55;;;;;;;;;;;16.20;99.90;;;;;;2630090;54;19946;-77
2023/09/27 00:19:26;;;;;;;;;;;16.20;99.90;;;;;;2618655;54;19947;-77
2023/09/27 00:21:56;;;;;;;;;;;16.20;99.90;;;;;;2620689;54;19942;-78
2023/09/27 00:24:26;;;;;;;;;;;16.20;99.90;;;;;;2618604;47;19946;-78
2023/09/27 00:26:55;;;;;;;;;;;16.20;99.90;;;;;;2618795;54;19980;-77
2023/09/27 00:29:25;;;;;;;;;;;16.20;99.90;;;;;;2626485;47;19942;-78
2023/09/27 00:31:59;;;;;;;;;;;16.20;99.90;;;;;;2624564;54;19962;-78
2023/09/27 00:34:29;;;;;;;;;;;16.20;99.90;;;;;;2619555;47;19939;-77
2023/09/27 00:36:59;;;;;;;;;;;16.20;99.90;;;;;;2618615;47;19943;-77
2023/09/27 00:39:28;;;;;;;;;;;16.20;99.90;;;;;;2618568;54;20063;-77
2023/09/27 00:41:58;;;;;;;;;;;16.30;99.90;;;;;;2617922;47;19999;-77
2023/09/27 00:44:28;;;;;;;;;;;16.40;99.90;;;;;;2618045;47;20038;-78
2023/09/27 00:47:01;;;;;;;;;;;16.30;99.90;;;;;;2618180;54;19951;-77
2023/09/27 00:49:31;;;;;;;;;;;16.20;99.90;;;;;;2619084;47;19986;-77
2023/09/27 00:52:02;;;;;;;;;;;16.20;99.90;;;;;;2618031;47;19950;-77
2023/09/27 00:54:33;;;;;;;;;;;16.20;99.90;;;;;;2617427;47;19958;-77
2023/09/27 00:57:05;;;;;;;;;;;16.30;99.90;;;;;;2617385;47;20041;-77
2023/09/27 00:59:35;;;;;;;;;;;16.20;99.90;;;;;;2617466;54;19938;-76
2023/09/27 01:02:08;;;;;;;;;;;16.20;99.90;;;;;;2617551;47;20432;-77
2023/09/27 01:04:38;;;;;;;;;;;16.20;99.90;;;;;;2617689;47;19947;-77
2023/09/27 01:07:08;;;;;;;;;;;16.10;99.90;;;;;;2617685;54;20046;-77
2023/09/27 01:09:39;;;;;;;;;;;16.00;99.90;;;;;;2618778;54;19954;-77
2023/09/27 01:12:09;;;;;;;;;;;16.00;99.90;;;;;;2617605;54;20040;-76
2023/09/27 01:14:39;;;;;;;;;;;16.00;99.90;;;;;;2618000;47;20463;-76
2023/09/27 01:17:15;;;;;;;;;;;15.90;99.90;;;;;;2618614;39;20053;-77
2023/09/27 01:19:45;;;;;;;;;;;15.80;99.90;;;;;;2617996;47;19954;-76
2023/09/27 01:22:15;;;;;;;;;;;15.90;99.90;;;;;;2620437;54;19953;-76
2023/09/27 01:24:48;;;;;;;;;;;15.80;99.90;;;;;;2619110;47;19995;-77
2023/09/27 01:27:19;;;;;;;;;;;15.80;99.90;;;;;;2618801;47;19969;-76
2023/09/27 01:29:49;;;;;;;;;;;15.70;99.90;;;;;;2619276;47;20440;-76
2023/09/27 01:32:20;;;;;;;;;;;15.70;99.90;;;;;;2619510;54;20539;-76
2023/09/27 01:34:50;;;;;;;;;;;15.60;99.90;;;;;;2618838;54;20447;-76
2023/09/27 01:37:20;;;;;;;;;;;15.60;99.90;;;;;;2618902;54;19970;-77
2023/09/27 01:39:54;;;;;;;;;;;15.60;99.90;;;;;;2623926;54;19968;-76
2023/09/27 01:42:24;;;;;;;;;;;15.50;99.90;;;;;;2619419;54;19951;-77
2023/09/27 01:44:54;;;;;;;;;;;15.50;99.90;;;;;;2619445;39;20401;-76
2023/09/27 01:47:23;;;;;;;;;;;15.50;99.90;;;;;;2619718;47;19942;-76
2023/09/27 01:49:53;;;;;;;;;;;15.40;99.90;;;;;;2622561;47;19945;-76
2023/09/27 01:52:23;;;;;;;;;;;15.40;99.90;;;;;;2621988;47;19987;-75
2023/09/27 01:54:56;;;;;;;;;;;15.30;99.90;;;;;;2621369;39;20384;-77
2023/09/27 01:57:26;;;;;;;;;;;15.30;99.90;;;;;;2618314;54;20034;-77
2023/09/27 01:59:55;;;;;;;;;;;15.40;99.90;;;;;;2618410;54;20435;-77
2023/09/27 02:02:25;;;;;;;;;;;15.40;99.90;;;;;;2618658;47;20034;-76
2023/09/27 02:04:55;;;;;;;;;;;15.40;99.90;;;;;;2622137;54;19951;-75
2023/09/27 02:07:25;;;;;;;;;;;15.40;99.90;;;;;;2625750;54;19938;-76
2023/09/27 02:09:58;;;;;;;;;;;15.40;99.90;;;;;;2622089;49;19943;-75
2023/09/27 02:12:28;;;;;;;;;;;15.40;99.90;;;;;;2630513;47;19994;-75
2023/09/27 02:14:57;;;;;;;;;;;15.40;99.90;;;;;;2631628;47;19927;-77
2023/09/27 02:17:27;;;;;;;;;;;15.40;99.90;;;;;;2631527;47;19927;-78
2023/09/27 02:19:58;;;;;;;;;;;15.30;99.90;;;;;;2621680;47;19984;-77
2023/09/27 02:22:28;;;;;;;;;;;15.30;99.90;;;;;;2617312;47;19970;-77
2023/09/27 02:25:01;;;;;;;;;;;15.30;99.90;;;;;;2617248;47;19970;-77
2023/09/27 02:27:31;;;;;;;;;;;15.30;99.90;;;;;;2617416;54;19950;-78
2023/09/27 02:30:00;;;;;;;;;;;15.30;99.90;;;;;;2616986;47;19953;-76
2023/09/27 02:32:30;;;;;;;;;;;15.40;99.90;;;;;;2617123;47;19938;-76
2023/09/27 02:35:00;;;;;;;;;;;15.40;99.90;;;;;;2618918;47;19946;-76
2023/09/27 02:37:31;;;;;;;;;;;15.30;99.90;;;;;;2617050;54;19974;-76
2023/09/27 02:40:05;;;;;;;;;;;15.30;99.90;;;;;;2618175;54;19957;-75
2023/09/27 02:42:34;;;;;;;;;;;15.30;99.90;;;;;;2618076;47;19954;-77
2023/09/27 02:45:04;;;;;;;;;;;15.20;99.90;;;;;;2618215;54;20071;-77
2023/09/27 02:47:34;;;;;;;;;;;15.20;99.90;;;;;;2618193;47;19973;-77
2023/09/27 02:50:05;;;;;;;;;;;15.20;99.90;;;;;;2618829;31;20441;-78
2023/09/27 02:52:36;;;;;;;;;;;15.10;99.90;;;;;;2618043;54;19991;-75
2023/09/27 02:55:09;;;;;;;;;;;15.10;99.90;;;;;;2619828;54;19939;-76
2023/09/27 02:57:39;;;;;;;;;;;15.10;99.90;;;;;;2619045;39;20311;-77
2023/09/27 03:00:11;;;;;;;;;;;15.10;99.90;;;;;;2618616;54;19946;-77
2023/09/27 03:02:41;;;;;;;;;;;15.10;99.90;;;;;;2618909;54;19950;-77
2023/09/27 03:05:12;;;;;;;;;;;15.10;99.90;;;;;;2618498;54;19953;-75
2023/09/27 03:07:44;;;;;;;;;;;15.00;99.90;;;;;;2617797;54;20455;-76
2023/09/27 03:10:18;;;;;;;;;;;15.00;99.90;;;;;;2618887;47;20470;-76
2023/09/27 03:12:49;;;;;;;;;;;15.00;99.90;;;;;;2618401;47;20017;-76
2023/09/27 03:15:19;;;;;;;;;;;14.90;99.90;;;;;;2618215;47;19946;-77
2023/09/27 03:17:50;;;;;;;;;;;14.90;99.90;;;;;;2618985;54;20067;-76
2023/09/27 03:20:21;;;;;;;;;;;14.90;99.90;;;;;;2618978;47;19958;-76
2023/09/27 03:22:51;;;;;;;;;;;14.90;99.90;;;;;;2618139;47;20064;-76
2023/09/27 03:25:24;;;;;;;;;;;14.90;99.90;;;;;;2618076;47;19998;-77
2023/09/27 03:27:54;;;;;;;;;;;14.90;99.90;;;;;;2618027;54;19958;-77
2023/09/27 03:30:24;;;;;;;;;;;14.90;99.90;;;;;;2618182;50;19998;-77
2023/09/27 03:32:54;;;;;;;;;;;14.90;99.90;;;;;;2619228;54;19946;-77
2023/09/27 03:35:23;;;;;;;;;;;14.90;99.90;;;;;;2618414;47;19946;-76
2023/09/27 03:37:56;;;;;;;;;;;14.90;99.90;;;;;;2621079;47;19946;-77
2023/09/27 03:40:29;;;;;;;;;;;14.90;99.90;;;;;;2622422;47;19939;-77
2023/09/27 03:42:59;;;;;;;;;;;14.90;99.90;;;;;;2629169;47;19939;-75
2023/09/27 03:45:30;;;;;;;;;;;14.90;99.90;;;;;;2629667;47;19970;-78
2023/09/27 03:48:00;;;;;;;;;;;14.90;99.90;;;;;;2636542;39;20468;-80
2023/09/27 03:50:31;;;;;;;;;;;15.00;99.90;;;;;;2629477;47;19968;-80
2023/09/27 03:59:07;;;;;;;;;;;14.80;99.90;;;;;;2620783;54;19971;-73
2023/09/27 04:01:37;;;;;;;;;;;14.80;99.90;;;;;;2615172;46;20037;-71
2023/09/27 04:04:07;;;;;;;;;;;14.80;99.90;;;;;;2616256;47;19947;-68
2023/09/27 04:06:37;;;;;;;;;;;14.80;99.90;;;;;;2616090;47;20466;-71
2023/09/27 04:09:08;;;;;;;;;;;14.80;99.90;;;;;;2614840;54;19950;-69
2023/09/27 04:11:39;;;;;;;;;;;14.80;99.90;;;;;;2615646;47;19953;-71
2023/09/27 04:14:12;;;;;;;;;;;14.80;99.90;;;;;;2615672;54;19946;-67
2023/09/27 04:16:42;;;;;;;;;;;14.80;99.90;;;;;;2613920;54;19951;-80
2023/09/27 04:19:11;;;;;;;;;;;14.70;99.90;;;;;;2625677;54;19938;-82
2023/09/27 04:21:41;;;;;;;;;;;14.70;99.90;;;;;;2622143;47;19943;-78
2023/09/27 04:24:11;;;;;;;;;;;14.70;99.90;;;;;;2625615;39;20332;-78
2023/09/27 04:26:41;;;;;;;;;;;14.70;99.90;;;;;;2628260;47;19954;-83
2023/09/27 04:32:25;;;;;;;;;;;14.60;99.90;;;;;;2620549;47;19982;-78
2023/09/27 04:34:55;;;;;;;;;;;14.60;99.90;;;;;;2620273;47;19966;-79
2023/09/27 04:37:26;;;;;;;;;;;14.60;99.90;;;;;;2622189;48;19982;-78
2023/09/27 04:39:56;;;;;;;;;;;14.60;99.90;;;;;;2621171;47;19947;-77
2023/09/27 04:42:27;;;;;;;;;;;14.60;99.90;;;;;;2622547;54;20071;-79
2023/09/27 04:44:57;;;;;;;;;;;14.60;99.90;;;;;;2622303;47;19951;-78
2023/09/27 04:47:30;;;;;;;;;;;14.60;99.90;;;;;;2625419;47;19934;-81
2023/09/27 04:50:00;;;;;;;;;;;14.60;99.90;;;;;;2627106;39;20110;-78
2023/09/27 04:52:30;;;;;;;;;;;14.60;99.90;;;;;;2626568;47;19939;-79
2023/09/27 04:55:00;;;;;;;;;;;14.50;99.90;;;;;;2626483;47;19938;-77
2023/09/27 04:57:30;;;;;;;;;;;14.50;99.90;;;;;;2623602;54;19950;-76
2023/09/27 05:00:00;;;;;;;;;;;14.40;99.90;;;;;;2620516;47;19986;-77
2023/09/27 05:02:34;;;;;;;;;;;14.40;99.90;;;;;;2622391;39;20355;-78
2023/09/27 05:05:07;;;;;;;;;;;14.40;99.90;;;;;;2620861;54;19958;-77
2023/09/27 05:07:39;;;;;;;;;;;14.50;99.90;;;;;;2621710;47;19971;-77
2023/09/27 05:10:10;;;;;;;;;;;14.50;99.90;;;;;;2621185;39;20352;-78
2023/09/27 05:12:41;;;;;;;;;;;14.40;99.90;;;;;;2620862;54;20510;-78
2023/09/27 05:15:12;;;;;;;;;;;14.40;99.90;;;;;;2621360;39;20383;-77
2023/09/27 05:17:44;;;;;;;;;;;14.40;99.90;;;;;;2620147;47;19950;-79
2023/09/27 05:20:15;;;;;;;;;;;14.50;99.90;;;;;;2621570;46;19958;-78
2023/09/27 05:22:46;;;;;;;;;;;14.50;99.90;;;;;;2622981;47;19982;-77
2023/09/27 05:25:15;;;;;;;;;;;14.50;99.90;;;;;;2621342;47;19939;-76
2023/09/27 05:27:46;;;;;;;;;;;14.50;99.90;;;;;;2620639;54;19946;-76
2023/09/27 05:30:16;;;;;;;;;;;14.40;99.90;;;;;;2620706;47;19938;-76
2023/09/27 05:35:36;;;;;;;;;;;14.40;99.90;;;;;;2619959;54;19950;-70
2023/09/27 05:38:08;;;;;;;;;;;14.40;99.90;;;;;;2619646;54;19938;-67
2023/09/27 05:40:38;;;;;;;;;;;14.40;99.90;;;;;;2618966;46;19988;-67
2023/09/27 05:43:09;;;;;;;;;;;14.40;99.90;;;;;;2620332;46;20449;-68
2023/09/27 05:46:04;;;;;;;;;;;14.40;99.90;;;;;;2620349;47;19939;-70
2023/09/27 05:48:34;;;;;;;;;;;14.40;99.90;;;;;;2616891;47;19951;-67
2023/09/27 05:51:11;;;;;;;;;;;14.40;99.90;;;;;;2619193;54;19946;-70
2023/09/27 05:53:42;;;;;;;;;;;14.10;99.90;;;;;;2616948;47;20465;-68
2023/09/27 05:56:12;;;;;;;;;;;14.40;99.90;;;;;;2616753;54;19946;-68
2023/09/27 05:58:42;;;;;;;;;;;14.40;99.90;;;;;;2616107;54;19950;-69
2023/09/27 06:01:11;;;;;;;;;;;14.40;99.90;;;;;;2616415;54;19952;-68
2023/09/27 06:03:41;;;;;;;;;;;14.40;99.90;;;;;;2616891;54;19950;-69
2023/09/27 06:06:14;;;;;;;;;;;14.40;99.90;;;;;;2617765;54;19951;-67
2023/09/27 06:11:20;;;;;;;;;;;14.50;99.90;;;;;;2610093;54;19947;-74
2023/09/27 06:13:50;;;;;;;;;;;14.50;99.90;;;;;;2618388;54;19997;-75
2023/09/27 06:16:19;;;;;;;;;;;14.60;99.90;;;;;;2617516;47;19946;-74
2023/09/27 06:18:49;;;;;;;;;;;14.70;99.90;;;;;;2615375;52;19947;-74
2023/09/27 06:21:23;;;;;;;;;;;14.60;99.90;;;;;;2613098;47;20474;-76
2023/09/27 06:26:55;;;;;;;;;;;14.60;99.90;;;;;;2627658;36;19969;-77
2023/09/27 06:29:25;;;;;;;;;;;14.70;99.90;;;;;;2619051;51;19979;-74
2023/09/27 06:31:56;;;;;;;;;;;14.60;99.90;;;;;;2611233;47;19947;-74
2023/09/27 06:34:26;;;;;;;;;;;14.70;99.90;;;;;;2611857;47;19977;-75
2023/09/27 06:36:59;;;;;;;;;;;14.70;99.90;;;;;;2612866;54;19958;-74
2023/09/27 06:39:28;;;;;;;;;;;14.70;99.90;;;;;;2613504;47;20519;-75
2023/09/27 06:41:58;;;;;;;;;;;14.70;99.90;;;;;;2613115;47;19947;-75
2023/09/27 06:44:29;;;;;;;;;;;14.80;99.90;;;;;;2612895;47;19946;-73
2023/09/27 06:46:58;;;;;;;;;;;14.80;99.90;;;;;;2613366;47;20028;-72
2023/09/27 06:49:30;;;;;;;;;;;14.90;99.90;;;;;;2614247;54;20514;-73
2023/09/27 06:52:02;;;;;;;;;;;14.90;99.90;;;;;;2613325;39;20363;-73
2023/09/27 06:54:32;;;;;;;;;;;15.00;99.90;;;;;;2612982;54;19976;-74
2023/09/27 06:57:02;;;;;;;;;;;15.00;99.90;;;;;;2612705;47;19953;-73
2023/09/27 06:59:32;;;;;;;;;;;15.00;99.90;;;;;;2613128;54;19954;-74
2023/09/27 07:02:02;;;;;;;;;;;15.10;99.90;;;;;;2613108;54;20525;-74
2023/09/27 07:04:32;;;;;;;;;;;15.10;99.90;;;;;;2613097;54;19954;-74
2023/09/27 07:07:05;;;;;;;;;;;15.20;99.90;;;;;;2613204;54;20396;-75
2023/09/27 07:09:35;;;;;;;;;;;15.30;99.90;;;;;;2613773;31;20431;-76
2023/09/27 07:12:05;;;;;;;;;;;15.30;99.90;;;;;;2613656;46;20022;-74
2023/09/27 07:17:08;;;;;;;;;;;15.40;99.90;;;;;;2612532;54;19953;-64
2023/09/27 07:19:38;;;;;;;;;;;15.50;99.90;;;;;;2612763;54;19970;-64
2023/09/27 07:22:15;;;;;;;;;;;15.50;99.90;;;;;;2613879;39;20009;-64
2023/09/27 07:24:45;;;;;;;;;;;15.60;99.90;;;;;;2612481;47;19954;-63
2023/09/27 07:27:15;;;;;;;;;;;15.60;99.90;;;;;;2612846;54;19950;-65
2023/09/27 07:29:47;;;;;;;;;;;15.70;99.90;;;;;;2612550;54;20600;-65
2023/09/27 07:32:19;;;;;;;;;;;15.70;99.90;;;;;;2612413;54;20030;-63
2023/09/27 07:34:53;;;;;;;;;;;15.80;99.90;;;;;;2612320;54;20436;-65
2023/09/27 07:37:25;;;;;;;;;;;15.80;99.90;;;;;;2612424;54;20619;-65
2023/09/27 07:39:55;;;;;;;;;;;15.80;99.90;;;;;;2612789;39;20371;-65
2023/09/27 07:42:25;;;;;;;;;;;15.90;99.90;;;;;;2613097;47;19980;-70
2023/09/27 07:44:57;;;;;;;;;;;15.90;99.90;;;;;;2611825;54;20482;-67
2023/09/27 07:47:27;;;;;;;;;;;15.90;99.90;;;;;;2612588;54;19947;-63
2023/09/27 07:49:57;;;;;;;;;;;15.10;99.90;;;;;;2612470;39;20443;-63
2023/09/27 07:52:30;;;;;;;;;;;16.00;99.90;;;;;;2613172;54;20020;-63
2023/09/27 07:55:01;;;;;;;;;;;16.00;99.90;;;;;;2613298;54;19946;-66
2023/09/27 07:57:34;;;;;;;;;;;16.10;99.90;;;;;;2612264;54;19947;-63
2023/09/27 08:00:08;;;;;;;;;;;16.20;99.90;;;;;;2612491;54;19971;-64
2023/09/27 08:02:38;;;;;;;;;;;16.30;99.90;;;;;;2612902;54;20034;-63
2023/09/27 08:05:14;;;;;;;;;;;16.30;99.90;;;;;;2612933;54;19982;-63
2023/09/27 08:07:47;;;;;;;;;;;16.40;99.90;;;;;;2612979;54;20472;-64
2023/09/27 08:10:17;;;;;;;;;;;16.50;99.90;;;;;;2612917;47;19957;-65
2023/09/27 08:12:51;;;;;;;;;;;16.50;99.90;;;;;;2612626;54;19950;-65
2023/09/27 08:15:21;;;;;;;;;;;16.60;99.90;;;;;;2611852;54;19953;-64
2023/09/27 08:17:51;;;;;;;;;;;16.70;99.90;;;;;;2612483;54;19947;-64
2023/09/27 08:20:21;;;;;;;;;;;16.80;99.90;;;;;;2613131;47;20064;-63
2023/09/27 08:22:54;;;;;;;;;;;16.80;99.90;;;;;;2612707;54;19946;-64
2023/09/27 08:25:24;;;;;;;;;;;16.90;99.90;;;;;;2612388;47;19950;-63
2023/09/27 08:27:54;;;;;;;;;;;16.90;99.90;;;;;;2613073;54;20422;-66
2023/09/27 08:30:24;;;;;;;;;;;17.00;99.90;;;;;;2614668;54;19974;-65
2023/09/27 08:32:54;;;;;;;;;;;17.10;99.90;;;;;;2614508;47;19953;-65
2023/09/27 08:35:25;;;;;;;;;;;17.20;99.90;;;;;;2613019;47;19958;-64
2023/09/27 08:37:57;;;;;;;;;;;17.30;99.90;;;;;;2615790;54;20469;-64
2023/09/27 08:40:28;;;;;;;;;;;17.40;99.90;;;;;;2615544;54;19950;-65
2023/09/27 08:42:59;;;;;;;;;;;17.50;99.90;;;;;;2613139;54;19947;-63
2023/09/27 08:45:31;;;;;;;;;;;17.60;99.90;;;;;;2611957;54;19955;-65
2023/09/27 08:48:01;;;;;;;;;;;17.70;99.90;;;;;;2613531;54;19950;-65
2023/09/27 08:50:31;;;;;;;;;;;17.80;99.90;;;;;;2613367;46;20484;-63
2023/09/27 08:53:04;;;;;;;;;;;17.90;99.90;;;;;;2613878;54;19946;-63
2023/09/27 08:55:35;;;;;;;;;;;18.10;99.90;;;;;;2614157;39;20370;-65
2023/09/27 08:58:06;;;;;;;;;;;18.20;99.90;;;;;;2614193;54;19972;-65
2023/09/27 09:00:41;;;;;;;;;;;18.30;99.90;;;;;;2613470;54;19947;-64
2023/09/27 09:03:12;;;;;;;;;;;18.40;99.90;;;;;;2613007;54;19950;-63
2023/09/27 09:05:45;;;;;;;;;;;18.60;99.90;;;;;;2613124;54;19962;-64
2023/09/27 09:08:19;;;;;;;;;;;18.70;99.90;;;;;;2616869;47;19950;-63
2023/09/27 09:11:11;;;;;;;;;;;18.80;99.90;;;;;;2618672;54;20002;-64
2023/09/27 09:14:06;;;;;;;;;;;19.00;99.90;;;;;;2618778;54;19938;-64
2023/09/27 09:16:47;;;;;;;;;;;19.20;99.90;;;;;;2618688;54;20441;-65
2023/09/27 09:19:22;;;;;;;;;;;19.30;99.90;;;;;;2619106;47;19939;-65
2023/09/27 09:22:12;;;;;;;;;;;19.40;99.90;;;;;;2618228;54;20071;-63
2023/09/27 09:24:45;;;;;;;;;;;19.50;99.90;;;;;;2618492;54;19950;-64
2023/09/27 09:27:16;;;;;;;;;;;19.50;99.90;;;;;;2618224;54;20490;-64
2023/09/27 09:29:45;;;;;;;;;;;19.60;99.90;;;;;;2617911;54;19951;-63
2023/09/27 09:32:15;;;;;;;;;;;19.70;99.90;;;;;;2617312;54;20363;-66
2023/09/27 09:34:46;;;;;;;;;;;19.80;99.90;;;;;;2617632;54;19953;-64
2023/09/27 09:37:23;;;;;;;;;;;19.80;99.90;;;;;;2617639;47;19973;-65
2023/09/27 09:40:13;;;;;;;;;;;19.90;99.90;;;;;;2616969;54;19999;-65
2023/09/27 09:42:43;;;;;;;;;;;20.00;99.90;;;;;;2616841;54;19939;-64
2023/09/27 09:45:13;;;;;;;;;;;20.10;99.90;;;;;;2616267;54;20038;-65
2023/09/27 09:47:44;;;;;;;;;;;20.20;99.90;;;;;;2616734;47;19950;-64
2023/09/27 09:50:17;;;;;;;;;;;20.20;99.90;;;;;;2615882;47;19954;-65
2023/09/27 09:52:53;;;;;;;;;;;20.30;99.90;;;;;;2616241;54;20002;-64
2023/09/27 09:55:27;;;;;;;;;;;20.40;99.90;;;;;;2616590;54;19954;-64
2023/09/27 09:58:20;;;;;;;;;;;20.50;99.90;;;;;;2616726;54;19971;-64
2023/09/27 10:00:53;;;;;;;;;;;20.50;99.90;;;;;;2616297;47;19974;-64
2023/09/27 10:03:25;;;;;;;;;;;20.60;99.90;;;;;;2616168;54;20438;-65
2023/09/27 10:05:56;;;;;;;;;;;20.60;99.90;;;;;;2617030;54;19966;-66
2023/09/27 10:08:28;;;;;;;;;;;20.60;99.90;;;;;;2616904;54;19950;-64
2023/09/27 10:11:01;;;;;;;;;;;20.60;99.90;;;;;;2616218;54;20438;-64
2023/09/27 10:13:31;;;;;;;;;;;20.60;99.90;;;;;;2616674;54;19958;-63
2023/09/27 10:16:01;;;;;;;;;;;20.70;99.90;;;;;;2616360;54;20038;-64
2023/09/27 10:18:33;;;;;;;;;;;20.90;99.90;;;;;;2616279;47;19957;-64
2023/09/27 10:21:09;;;;;;;;;;;21.00;99.90;;;;;;2616901;54;20506;-65
2023/09/27 10:23:58;;;;;;;;;;;21.20;99.90;;;;;;2615988;54;19957;-64
2023/09/27 10:26:38;;;;;;;;;;;21.30;99.90;;;;;;2616580;54;19951;-64
2023/09/27 10:29:10;;;;;;;;;;;21.50;99.90;;;;;;2616866;54;19943;-64
2023/09/27 10:32:01;;;;;;;;;;;21.60;99.90;;;;;;2616072;54;20461;-63
2023/09/27 10:34:43;;;;;;;;;;;21.70;99.90;;;;;;2616227;54;19954;-63
2023/09/27 10:37:13;;;;;;;;;;;21.70;99.90;;;;;;2616732;54;20592;-65
2023/09/27 10:40:05;;;;;;;;;;;21.80;99.90;;;;;;2616656;54;19980;-65
2023/09/27 10:42:44;;;;;;;;;;;21.70;99.90;;;;;;2616323;54;19946;-65
2023/09/27 10:45:13;;;;;;;;;;;21.60;99.90;;;;;;2616573;54;20702;-65
2023/09/27 10:47:44;;;;;;;;;;;21.50;99.90;;;;;;2616804;54;19951;-65
2023/09/27 10:50:16;;;;;;;;;;;21.50;99.90;;;;;;2616730;54;19946;-64
2023/09/27 10:52:46;;;;;;;;;;;21.70;99.90;;;;;;2616926;54;19950;-64
2023/09/27 10:55:16;;;;;;;;;;;21.90;99.90;;;;;;2616894;54;19973;-65
2023/09/27 11:01:04;;;;;;;;;;;22.10;99.90;;;;;;2615238;39;20369;-65
2023/09/27 11:03:59;;;;;;;;;;;22.30;99.90;;;;;;2618929;54;19953;-66
2023/09/27 11:12:33;;;;;;;;;;;22.70;99.90;;;;;;2611443;54;19973;-66
2023/09/27 11:20:23;;;;;;;;;;;23.00;99.90;;;;;;2608134;54;19954;-78
2023/09/27 11:22:58;;;;;;;;;;;23.20;99.90;;;;;;2618470;47;19994;-79
2023/09/27 11:25:30;;;;;;;;;;;23.30;99.90;;;;;;2618213;54;19953;-79
2023/09/27 11:28:01;;;;;;;;;;;23.50;99.90;;;;;;2635187;36;19950;-79
2023/09/27 11:30:32;;;;;;;;;;;23.60;99.90;;;;;;2619494;46;19950;-82
2023/09/27 11:33:04;;;;;;;;;;;23.70;99.90;;;;;;2620274;54;19957;-82
2023/09/27 11:35:39;;;;;;;;;;;23.80;99.90;;;;;;2619711;47;19963;-82
2023/09/27 11:38:11;;;;;;;;;;;23.90;99.90;;;;;;2620243;47;19954;-81
2023/09/27 11:40:43;;;;;;;;;;;24.10;99.90;;;;;;2622107;47;19972;-81
2023/09/27 11:43:13;;;;;;;;;;;24.20;99.90;;;;;;2623484;47;19946;-82
2023/09/27 11:45:44;;;;;;;;;;;24.20;99.90;;;;;;2621151;47;19947;-80
2023/09/27 11:48:14;;;;;;;;;;;24.40;99.90;;;;;;2621087;54;19950;-81
2023/09/27 11:50:46;;;;;;;;;;;24.50;99.90;;;;;;2621181;47;20455;-80
2023/09/27 11:53:16;;;;;;;;;;;24.70;99.90;;;;;;2624827;47;19927;-81
2023/09/27 11:55:46;;;;;;;;;;;24.90;99.90;;;;;;2629814;54;19995;-82
2023/09/27 11:58:16;;;;;;;;;;;25.00;99.90;;;;;;2623220;47;19987;-79
2023/09/27 12:00:46;;;;;;;;;;;25.10;99.90;;;;;;2618657;47;19999;-79
2023/09/27 12:03:16;;;;;;;;;;;25.20;99.90;;;;;;2618475;47;19961;-79
2023/09/27 12:05:49;;;;;;;;;;;25.30;99.90;;;;;;2616955;54;20050;-77
2023/09/27 12:08:19;;;;;;;;;;;25.30;99.90;;;;;;2621810;47;19939;-78
2023/09/27 12:10:49;;;;;;;;;;;25.40;99.90;;;;;;2624336;47;19945;-79
2023/09/27 12:13:19;;;;;;;;;;;25.50;99.90;;;;;;2621860;47;20063;-77
2023/09/27 12:15:49;;;;;;;;;;;25.60;99.90;;;;;;2622992;54;20026;-79
2023/09/27 12:18:19;;;;;;;;;;;25.70;99.90;;;;;;2621494;47;19938;-78
2023/09/27 12:20:52;;;;;;;;;;;25.70;99.90;;;;;;2618215;47;19962;-77
2023/09/27 12:23:22;;;;;;;;;;;25.80;99.90;;;;;;2620253;47;19954;-78
2023/09/27 12:25:53;;;;;;;;;;;25.90;99.90;;;;;;2623464;54;19951;-76
2023/09/27 12:31:00;;;;;;;;;;;26.10;99.90;;;;;;2612417;54;19972;-75
2023/09/27 12:33:32;;;;;;;;;;;26.20;99.90;;;;;;2612254;47;19971;-75
2023/09/27 12:36:05;;;;;;;;;;;26.30;99.90;;;;;;2613756;47;20100;-74
2023/09/27 12:38:35;;;;;;;;;;;26.40;99.90;;;;;;2613286;47;19946;-75
2023/09/27 12:41:05;;;;;;;;;;;26.50;99.90;;;;;;2613373;47;19946;-75
2023/09/27 12:43:35;;;;;;;;;;;26.60;99.90;;;;;;2613181;47;19985;-75
2023/09/27 12:46:05;;;;;;;;;;;26.60;99.90;;;;;;2615120;39;20640;-74
2023/09/27 12:48:35;;;;;;;;;;;26.70;99.90;;;;;;2613018;54;20428;-75
2023/09/27 12:51:11;;;;;;;;;;;26.90;99.90;;;;;;2614527;54;19950;-75
2023/09/27 12:53:41;;;;;;;;;;;27.00;99.90;;;;;;2613793;54;19947;-75
2023/09/27 12:56:14;;;;;;;;;;;27.00;99.90;;;;;;2614350;47;20065;-75
2023/09/27 12:58:46;;;;;;;;;;;27.00;99.90;;;;;;2614142;50;19951;-74
2023/09/27 13:01:17;;;;;;;;;;;27.10;99.90;;;;;;2613951;39;20404;-73
2023/09/27 13:03:47;;;;;;;;;;;27.20;99.90;;;;;;2613792;54;19950;-74
2023/09/27 13:06:20;;;;;;;;;;;27.30;99.90;;;;;;2614293;54;19954;-75
2023/09/27 13:08:50;;;;;;;;;;;27.40;99.90;;;;;;2614271;47;20009;-75
2023/09/27 13:11:19;;;;;;;;;;;27.60;99.90;;;;;;2615221;54;19947;-76
2023/09/27 13:13:49;;;;;;;;;;;27.70;99.90;;;;;;2614801;54;19946;-77
2023/09/27 13:16:19;;;;;;;;;;;27.80;99.90;;;;;;2615936;47;19951;-75
2023/09/27 13:18:50;;;;;;;;;;;27.80;99.90;;;;;;2617184;54;19947;-75
2023/09/27 13:21:27;;;;;;;;;;;27.90;99.90;;;;;;2627793;47;19943;-76
2023/09/27 13:29:07;;;;;;;;;;;28.20;99.90;;;;;;2615871;47;19953;-69
2023/09/27 13:31:37;;;;;;;;;;;28.10;99.90;;;;;;2612955;47;20604;-72
2023/09/27 13:34:07;;;;;;;;;;;28.10;99.90;;;;;;2613737;54;19938;-74
2023/09/27 13:36:43;;;;;;;;;;;28.20;99.90;;;;;;2613444;47;19950;-74
2023/09/27 13:39:16;;;;;;;;;;;28.20;99.90;;;;;;2613716;47;19961;-74
2023/09/27 13:41:48;;;;;;;;;;;28.20;99.90;;;;;;2615096;47;19953;-71
2023/09/27 13:44:23;;;;;;;;;;;28.20;99.90;;;;;;2615892;54;19954;-72
2023/09/27 13:46:53;;;;;;;;;;;28.10;99.90;;;;;;2613825;54;19950;-72
2023/09/27 13:49:23;;;;;;;;;;;28.00;99.90;;;;;;2614674;54;19953;-71
2023/09/27 13:51:56;;;;;;;;;;;27.90;99.90;;;;;;2615503;54;19951;-71
2023/09/27 13:54:26;;;;;;;;;;;27.90;99.90;;;;;;2615429;54;19953;-72
2023/09/27 13:56:58;;;;;;;;;;;27.80;99.90;;;;;;2614744;50;19959;-74
2023/09/27 13:59:28;;;;;;;;;;;27.60;99.90;;;;;;2615414;47;19946;-74
2023/09/27 14:01:58;;;;;;;;;;;27.40;99.90;;;;;;2616072;54;19999;-73
2023/09/27 14:04:30;;;;;;;;;;;27.30;99.90;;;;;;2615207;54;19966;-75
2023/09/27 14:07:03;;;;;;;;;;;27.10;99.90;;;;;;2614450;54;19946;-72
2023/09/27 14:09:33;;;;;;;;;;;27.00;99.90;;;;;;2615300;47;20141;-72
2023/09/27 14:12:03;;;;;;;;;;;26.90;99.90;;;;;;2615293;54;19946;-72
2023/09/27 14:14:33;;;;;;;;;;;26.80;99.90;;;;;;2617234;54;20011;-72
2023/09/27 14:17:03;;;;;;;;;;;26.70;99.90;;;;;;2615075;54;19947;-72
2023/09/27 14:19:34;;;;;;;;;;;26.60;99.90;;;;;;2615255;47;19953;-73
2023/09/27 14:22:06;;;;;;;;;;;26.60;99.90;;;;;;2617074;47;19946;-71
2023/09/27 14:24:37;;;;;;;;;;;26.50;99.90;;;;;;2628594;39;20112;-72
2023/09/27 14:27:07;;;;;;;;;;;26.70;99.90;;;;;;2618926;54;19946;-76
2023/09/27 14:29:37;;;;;;;;;;;28.40;99.90;;;;;;2615942;54;19959;-73
2023/09/27 14:32:08;;;;;;;;;;;31.50;99.90;;;;;;2614774;54;19946;-72
2023/09/27 14:34:39;;;;;;;;;;;34.70;99.90;;;;;;2612683;47;20095;-73
2023/09/27 14:37:28;;;;;;;;;;;37.40;99.90;;;;;;2612460;47;19951;-74
2023/09/27 14:39:59;;;;;;;;;;;39.80;99.90;;;;;;2612255;54;20421;-72
2023/09/27 14:42:29;;;;;;;;;;;41.60;99.90;;;;;;2609072;47;20107;-74
2023/09/27 14:45:00;;;;;;;;;;;43.00;98.50;;;;;;2610606;47;19947;-75
2023/09/27 14:47:30;;;;;;;;;;;43.90;93.90;;;;;;2611031;47;19971;-74
2023/09/27 14:50:00;;;;;;;;;;;44.50;91.60;;;;;;2612812;47;19953;-75
2023/09/27 14:52:32;;;;;;;;;;;44.60;90.40;;;;;;2615292;47;19953;-73
2023/09/27 14:55:03;;;;;;;;;;;44.80;87.40;;;;;;2615030;47;19947;-78
2023/09/27 14:57:33;;;;;;;;;;;45.00;84.00;;;;;;2616442;54;19950;-76
2023/09/27 15:03:24;;;;;;;;;;;45.30;81.50;;;;;;2613616;47;19946;-77
2023/09/27 15:05:55;;;;;;;;;;;45.50;80.30;;;;;;2613528;52;20379;-74
2023/09/27 15:08:27;;;;;;;;;;;45.60;79.10;;;;;;2614628;47;19953;-75
2023/09/27 15:10:57;;;;;;;;;;;45.50;78.20;;;;;;2614444;47;19953;-76
2023/09/27 15:13:28;;;;;;;;;;;45.60;77.70;;;;;;2614325;47;19954;-75
2023/09/27 15:15:58;;;;;;;;;;;45.60;78.40;;;;;;2614596;47;19951;-75
2023/09/27 15:18:29;;;;;;;;;;;45.30;75.80;;;;;;2615056;54;19947;-78
2023/09/27 15:20:59;;;;;;;;;;;44.50;75.30;;;;;;2616315;54;19946;-75
2023/09/27 15:23:32;;;;;;;;;;;43.90;76.10;;;;;;2617027;47;19995;-73
2023/09/27 15:26:03;;;;;;;;;;;43.30;77.40;;;;;;2616527;54;19985;-75
2023/09/27 15:28:34;;;;;;;;;;;42.70;77.50;;;;;;2617201;54;19950;-75